Time;durP1;ratioP1;P1;durP2;ratioP2;P2;SDS_P1;SDS_P2;PMS_P1;PMS_P2;Temp;Humidity;BMP_temperature;BMP_pressure;BME280_temperature;BME280_humidity;BME280_pressure;Samples;Min_cycle;Max_cycle;Signal;HPM_P1;HPM_P2
2022/03/22 00:01:02;;;;;;;9.10;7.37;;;;;;;;;;5067545;28;20194;-65
2022/03/22 00:03:32;;;;;;;8.97;7.70;;;;;;;;;;5066801;28;20201;-65
2022/03/22 00:06:03;;;;;;;8.30;7.50;;;;;;;;;;5085830;28;20216;-67
2022/03/22 00:08:33;;;;;;;8.17;7.43;;;;;;;;;;5064995;28;20194;-67
2022/03/22 00:11:18;;;;;;;8.17;7.37;;;;;;;;;;5066822;28;20229;-65
2022/03/22 00:13:45;;;;;;;8.37;7.57;;;;;;;;;;5052959;28;20205;-67
2022/03/22 00:16:15;;;;;;;8.13;7.37;;;;;;;;;;5079043;28;20252;-66
2022/03/22 00:19:05;;;;;;;7.97;7.17;;;;;;;;;;5037031;28;20189;-66
2022/03/22 00:21:38;;;;;;;7.17;6.50;;;;;;;;;;5067555;28;20201;-66
2022/03/22 00:24:07;;;;;;;7.37;6.77;;;;;;;;;;5065252;28;20202;-65
2022/03/22 00:26:47;;;;;;;8.23;7.47;;;;;;;;;;5061150;28;20686;-67
2022/03/22 00:29:19;;;;;;;8.00;6.93;;;;;;;;;;5046067;28;20220;-67
2022/03/22 00:31:49;;;;;;;8.17;7.37;;;;;;;;;;5064302;28;20189;-67
2022/03/22 00:34:21;;;;;;;7.60;6.90;;;;;;;;;;5054418;28;20310;-66
2022/03/22 00:36:50;;;;;;;7.40;6.80;;;;;;;;;;5076339;28;20399;-67
2022/03/22 00:39:27;;;;;;;7.40;6.67;;;;;;;;;;5067135;28;20205;-65
2022/03/22 00:41:57;;;;;;;7.70;7.00;;;;;;;;;;5065406;28;20249;-66
2022/03/22 00:44:25;;;;;;;7.00;6.40;;;;;;;;;;5067755;28;20198;-67
2022/03/22 00:46:55;;;;;;;6.93;6.33;;;;;;;;;;5060079;28;20225;-65
2022/03/22 00:49:27;;;;;;;6.70;6.10;;;;;;;;;;5077894;28;20209;-65
2022/03/22 00:52:04;;;;;;;6.97;6.27;;;;;;;;;;5065856;28;20182;-67
2022/03/22 00:54:38;;;;;;;6.60;6.07;;;;;;;;;;5039757;28;20295;-66
2022/03/22 00:57:10;;;;;;;7.23;6.53;;;;;;;;;;5070580;28;20220;-66
2022/03/22 01:02:28;;;;;;;6.73;6.13;;;;;;;;;;5065702;28;20209;-65
2022/03/22 01:04:57;;;;;;;7.23;6.53;;;;;;;;;;5063100;28;20722;-66
2022/03/22 01:07:29;;;;;;;7.10;6.50;;;;;;;;;;5074828;28;20698;-65
2022/03/22 01:10:08;;;;;;;7.27;6.37;;;;;;;;;;5066212;28;20641;-66
2022/03/22 01:12:39;;;;;;;6.43;5.93;;;;;;;;;;5059758;28;20760;-66
2022/03/22 01:15:32;;;;;;;7.30;6.60;;;;;;;;;;5049855;28;20193;-66
2022/03/22 01:18:11;;;;;;;6.67;6.00;;;;;;;;;;5056306;28;20598;-66
2022/03/22 01:20:46;;;;;;;6.40;5.80;;;;;;;;;;5064455;28;20194;-65
2022/03/22 01:23:15;;;;;;;6.90;6.30;;;;;;;;;;5066460;28;20225;-66
2022/03/22 01:25:48;;;;;;;7.80;7.10;;;;;;;;;;5053639;28;20193;-66
2022/03/22 01:28:19;;;;;;;6.77;6.07;;;;;;;;;;5050395;28;20198;-67
2022/03/22 01:30:51;;;;;;;7.20;6.60;;;;;;;;;;5060422;28;20210;-66
2022/03/22 01:33:21;;;;;;;6.90;6.30;;;;;;;;;;5063499;28;20202;-66
2022/03/22 01:35:50;;;;;;;6.40;5.80;;;;;;;;;;5071847;28;20224;-66
2022/03/22 01:38:22;;;;;;;7.47;6.87;;;;;;;;;;5068206;28;20247;-66
2022/03/22 01:40:54;;;;;;;6.93;6.33;;;;;;;;;;5062119;28;20213;-65
2022/03/22 01:43:26;;;;;;;6.63;6.13;;;;;;;;;;5066435;28;20224;-66
2022/03/22 01:45:58;;;;;;;6.43;5.83;;;;;;;;;;5048748;28;20194;-66
2022/03/22 01:48:28;;;;;;;6.77;6.17;;;;;;;;;;5064350;28;20225;-66
2022/03/22 01:50:57;;;;;;;7.00;6.40;;;;;;;;;;5048816;28;20210;-66
2022/03/22 01:53:34;;;;;;;6.57;5.97;;;;;;;;;;5063766;28;20214;-66
2022/03/22 01:56:01;;;;;;;6.47;5.87;;;;;;;;;;5070597;28;20206;-67
2022/03/22 01:58:34;;;;;;;6.90;6.30;;;;;;;;;;5065752;28;20292;-66
2022/03/22 02:06:48;;;;;;;6.40;5.80;;;;;;;;;;5069790;28;20205;-66
2022/03/22 02:09:20;;;;;;;6.93;6.33;;;;;;;;;;5070136;28;20185;-66
2022/03/22 02:11:51;;;;;;;6.70;6.00;;;;;;;;;;5071130;28;20212;-66
2022/03/22 02:14:24;;;;;;;7.00;6.40;;;;;;;;;;5070941;28;20201;-66
2022/03/22 02:16:56;;;;;;;7.00;6.30;;;;;;;;;;5065790;28;20543;-66
2022/03/22 02:19:28;;;;;;;5.90;5.30;;;;;;;;;;5070263;28;20306;-66
2022/03/22 02:22:03;;;;;;;6.60;6.00;;;;;;;;;;5066286;28;20194;-66
2022/03/22 02:24:45;;;;;;;6.37;5.87;;;;;;;;;;5065061;28;20221;-65
2022/03/22 02:27:16;;;;;;;6.47;5.87;;;;;;;;;;5055958;28;20205;-65
2022/03/22 02:29:44;;;;;;;6.30;5.70;;;;;;;;;;5067169;28;20197;-65
2022/03/22 02:32:24;;;;;;;6.00;5.50;;;;;;;;;;5069521;28;20216;-65
2022/03/22 02:34:55;;;;;;;6.77;6.20;;;;;;;;;;5052673;28;20255;-66
2022/03/22 02:37:26;;;;;;;6.93;6.33;;;;;;;;;;5078220;28;20213;-66
2022/03/22 02:39:55;;;;;;;6.67;5.90;;;;;;;;;;5073097;28;20197;-65
2022/03/22 02:42:29;;;;;;;6.53;5.93;;;;;;;;;;5072505;28;20217;-65
2022/03/22 02:45:25;;;;;;;6.17;5.57;;;;;;;;;;5056158;28;20590;-66
2022/03/22 02:47:55;;;;;;;6.90;5.87;;;;;;;;;;5069851;28;20236;-65
2022/03/22 02:50:25;;;;;;;6.57;5.97;;;;;;;;;;5068463;28;20250;-66
2022/03/22 02:52:56;;;;;;;6.43;5.83;;;;;;;;;;5064421;28;20823;-66
2022/03/22 02:55:27;;;;;;;6.40;5.80;;;;;;;;;;5054718;28;20231;-66
2022/03/22 02:58:01;;;;;;;6.70;6.10;;;;;;;;;;5069702;28;20219;-66
2022/03/22 03:00:31;;;;;;;6.23;5.63;;;;;;;;;;5067251;28;20221;-66
2022/03/22 03:03:04;;;;;;;6.03;5.53;;;;;;;;;;5069438;28;20190;-66
2022/03/22 03:05:35;;;;;;;6.67;5.93;;;;;;;;;;5083651;28;20201;-66
2022/03/22 03:08:06;;;;;;;7.00;6.30;;;;;;;;;;5069965;28;20190;-67
2022/03/22 03:10:38;;;;;;;6.70;6.00;;;;;;;;;;5065813;28;20634;-67
2022/03/22 03:13:11;;;;;;;6.47;5.87;;;;;;;;;;5057255;28;20197;-67
2022/03/22 03:15:42;;;;;;;6.40;5.80;;;;;;;;;;5067556;28;20194;-66
2022/03/22 03:18:15;;;;;;;6.53;5.73;;;;;;;;;;5066455;28;20264;-66
2022/03/22 03:20:46;;;;;;;6.50;6.00;;;;;;;;;;5067173;28;20201;-66
2022/03/22 03:23:17;;;;;;;6.70;6.00;;;;;;;;;;5062031;28;20385;-65
2022/03/22 03:25:46;;;;;;;7.20;6.40;;;;;;;;;;5071358;28;20189;-65
2022/03/22 03:28:18;;;;;;;6.83;5.97;;;;;;;;;;5069072;28;20200;-66
2022/03/22 03:30:50;;;;;;;6.47;5.87;;;;;;;;;;5062922;28;20334;-65
2022/03/22 03:33:23;;;;;;;6.03;5.53;;;;;;;;;;5068099;28;20193;-67
2022/03/22 03:35:52;;;;;;;6.17;5.67;;;;;;;;;;5073827;28;20227;-66
2022/03/22 03:38:21;;;;;;;6.70;6.10;;;;;;;;;;5070020;28;20228;-65
2022/03/22 03:43:38;;;;;;;6.50;5.90;;;;;;;;;;5068545;28;20186;-66
2022/03/22 03:49:00;;;;;;;6.47;5.87;;;;;;;;;;5068893;28;20202;-66
2022/03/22 03:51:33;;;;;;;6.07;5.57;;;;;;;;;;5068167;28;20206;-67
2022/03/22 03:54:07;;;;;;;6.20;5.60;;;;;;;;;;5065900;28;20278;-65
2022/03/22 03:56:49;;;;;;;6.40;5.80;;;;;;;;;;5060871;28;20220;-66
2022/03/22 03:59:17;;;;;;;6.90;6.27;;;;;;;;;;5066128;28;20213;-66
2022/03/22 04:01:47;;;;;;;6.07;5.57;;;;;;;;;;5068000;28;20622;-66
2022/03/22 04:04:19;;;;;;;6.03;5.43;;;;;;;;;;5068662;28;20610;-65
2022/03/22 04:06:49;;;;;;;5.93;5.43;;;;;;;;;;5048303;28;20655;-66
2022/03/22 04:09:19;;;;;;;6.53;5.93;;;;;;;;;;5048513;28;20205;-66
2022/03/22 04:11:50;;;;;;;6.30;5.70;;;;;;;;;;5068403;28;20618;-65
2022/03/22 04:14:23;;;;;;;6.93;6.23;;;;;;;;;;5067487;28;20201;-66
2022/03/22 04:16:56;;;;;;;6.43;5.90;;;;;;;;;;5055762;28;20209;-66
2022/03/22 04:19:26;;;;;;;6.20;5.60;;;;;;;;;;5067842;28;20213;-66
2022/03/22 04:21:59;;;;;;;7.13;6.03;;;;;;;;;;5067725;28;20202;-66
2022/03/22 04:24:28;;;;;;;6.73;6.00;;;;;;;;;;5063097;28;20224;-67
2022/03/22 04:32:51;;;;;;;5.83;5.33;;;;;;;;;;5065657;28;20232;-66
2022/03/22 04:35:27;;;;;;;6.40;5.80;;;;;;;;;;5068856;28;20201;-66
2022/03/22 04:38:01;;;;;;;6.10;5.50;;;;;;;;;;5071779;28;20362;-65
2022/03/22 04:40:35;;;;;;;6.90;5.43;;;;;;;;;;5062552;28;20194;-65
2022/03/22 04:43:06;;;;;;;6.43;5.83;;;;;;;;;;5067326;28;20178;-67
2022/03/22 04:45:39;;;;;;;6.80;6.20;;;;;;;;;;5070645;28;20270;-68
2022/03/22 04:48:20;;;;;;;6.27;5.67;;;;;;;;;;5060003;28;20297;-66
2022/03/22 04:56:47;;;;;;;6.23;5.63;;;;;;;;;;5067515;28;20198;-66
2022/03/22 04:59:24;;;;;;;5.90;5.40;;;;;;;;;;5066167;28;20213;-67
2022/03/22 05:02:07;;;;;;;6.50;5.90;;;;;;;;;;5052382;28;20259;-67
2022/03/22 05:04:41;;;;;;;6.50;5.90;;;;;;;;;;5062120;28;20255;-66
2022/03/22 05:07:12;;;;;;;6.40;5.57;;;;;;;;;;5074564;28;20198;-66
2022/03/22 05:09:42;;;;;;;7.30;5.50;;;;;;;;;;5067062;28;20209;-66
2022/03/22 05:12:15;;;;;;;6.27;5.67;;;;;;;;;;5067460;28;20190;-66
2022/03/22 05:14:47;;;;;;;6.03;5.53;;;;;;;;;;5062781;28;20198;-66
2022/03/22 05:17:21;;;;;;;6.90;6.30;;;;;;;;;;5057524;28;20243;-68
2022/03/22 05:19:53;;;;;;;6.50;5.90;;;;;;;;;;5066646;28;20217;-66
2022/03/22 05:22:22;;;;;;;6.03;5.53;;;;;;;;;;5070554;28;20800;-69
2022/03/22 05:24:53;;;;;;;6.87;6.07;;;;;;;;;;5063979;28;20196;-66
2022/03/22 05:27:27;;;;;;;6.57;5.97;;;;;;;;;;5078623;28;20281;-68
2022/03/22 05:30:00;;;;;;;5.93;5.43;;;;;;;;;;5064008;28;20208;-66
2022/03/22 05:32:29;;;;;;;6.40;5.80;;;;;;;;;;5074801;28;20204;-66
2022/03/22 05:35:00;;;;;;;6.43;5.83;;;;;;;;;;5066188;28;20259;-66
2022/03/22 05:37:33;;;;;;;5.90;5.40;;;;;;;;;;5071443;28;20194;-66
2022/03/22 05:40:03;;;;;;;6.50;6.00;;;;;;;;;;5065624;28;20599;-66
2022/03/22 05:42:45;;;;;;;6.47;5.80;;;;;;;;;;5061745;28;20288;-67
2022/03/22 05:45:16;;;;;;;5.80;5.30;;;;;;;;;;5049423;28;20190;-66
2022/03/22 05:47:45;;;;;;;6.10;5.50;;;;;;;;;;5056656;28;20241;-66
2022/03/22 05:50:16;;;;;;;6.60;6.00;;;;;;;;;;5066509;28;20259;-66
2022/03/22 05:52:52;;;;;;;6.63;5.80;;;;;;;;;;5045326;28;20212;-66
2022/03/22 05:55:22;;;;;;;6.47;5.80;;;;;;;;;;5068065;28;20207;-66
2022/03/22 05:57:53;;;;;;;6.03;5.53;;;;;;;;;;5067570;28;20623;-66
2022/03/22 06:00:25;;;;;;;6.10;5.57;;;;;;;;;;5066401;28;20189;-66
2022/03/22 06:02:52;;;;;;;7.07;6.00;;;;;;;;;;5064409;28;20189;-66
2022/03/22 06:05:21;;;;;;;5.97;5.47;;;;;;;;;;5062133;28;20237;-66
2022/03/22 06:07:50;;;;;;;5.93;5.43;;;;;;;;;;5065560;28;20201;-66
2022/03/22 06:10:32;;;;;;;6.50;5.90;;;;;;;;;;5061375;28;20237;-67
2022/03/22 06:13:02;;;;;;;6.13;5.53;;;;;;;;;;5066246;28;20197;-67
2022/03/22 06:15:35;;;;;;;6.63;6.03;;;;;;;;;;5052160;28;20640;-65
2022/03/22 06:18:10;;;;;;;6.27;5.67;;;;;;;;;;5071693;28;20222;-65
2022/03/22 06:20:45;;;;;;;7.17;5.90;;;;;;;;;;5043726;28;20197;-67
2022/03/22 06:23:14;;;;;;;7.10;6.33;;;;;;;;;;5067504;28;20201;-66
2022/03/22 06:25:45;;;;;;;7.20;6.40;;;;;;;;;;5049513;28;20201;-65
2022/03/22 06:28:18;;;;;;;6.90;6.30;;;;;;;;;;5066091;28;20247;-67
2022/03/22 06:30:49;;;;;;;7.77;6.17;;;;;;;;;;5059154;28;20213;-66
2022/03/22 06:33:24;;;;;;;7.93;6.87;;;;;;;;;;5049979;28;20229;-66
2022/03/22 06:35:56;;;;;;;8.97;6.63;;;;;;;;;;5062585;28;20241;-66
2022/03/22 06:38:27;;;;;;;8.27;7.47;;;;;;;;;;5038984;28;20210;-65
2022/03/22 06:40:56;;;;;;;7.53;6.73;;;;;;;;;;5039827;28;20217;-66
2022/03/22 06:43:29;;;;;;;7.23;6.53;;;;;;;;;;5064557;28;20190;-66
2022/03/22 06:45:58;;;;;;;9.07;7.63;;;;;;;;;;5062725;28;20202;-66
2022/03/22 06:48:34;;;;;;;12.33;7.23;;;;;;;;;;5061551;28;20225;-67
2022/03/22 06:51:03;;;;;;;8.50;7.17;;;;;;;;;;5074707;28;20197;-67
2022/03/22 06:53:34;;;;;;;8.27;7.43;;;;;;;;;;5059798;28;20229;-66
2022/03/22 06:56:05;;;;;;;7.97;7.00;;;;;;;;;;5076314;28;20205;-67
2022/03/22 06:58:33;;;;;;;9.80;7.00;;;;;;;;;;5069386;28;20221;-66
2022/03/22 07:01:05;;;;;;;9.60;8.03;;;;;;;;;;5071154;28;20194;-67
2022/03/22 07:03:37;;;;;;;10.53;7.57;;;;;;;;;;5067475;28;20197;-67
2022/03/22 07:06:08;;;;;;;8.17;7.37;;;;;;;;;;5062267;28;20228;-67
2022/03/22 07:08:47;;;;;;;10.23;8.07;;;;;;;;;;5057845;28;20648;-68
2022/03/22 07:14:10;;;;;;;7.97;7.17;;;;;;;;;;5068369;28;20205;-65
2022/03/22 07:16:39;;;;;;;9.37;7.80;;;;;;;;;;5072757;28;20615;-66
2022/03/22 07:19:13;;;;;;;8.20;7.40;;;;;;;;;;5065504;28;20223;-66
2022/03/22 07:21:44;;;;;;;9.13;8.23;;;;;;;;;;5065825;28;20190;-66
2022/03/22 07:24:15;;;;;;;9.00;7.53;;;;;;;;;;5064992;28;20197;-66
2022/03/22 07:26:46;;;;;;;21.25;9.90;;;;;;;;;;5011373;28;20423;-67
2022/03/22 07:29:16;;;;;;;30.43;10.50;;;;;;;;;;5058492;28;20205;-66
2022/03/22 07:31:45;;;;;;;30.10;11.43;;;;;;;;;;5062410;28;20200;-68
2022/03/22 07:34:20;;;;;;;30.23;10.87;;;;;;;;;;5062828;28;20638;-68
2022/03/22 07:36:51;;;;;;;23.60;9.60;;;;;;;;;;5071995;28;20198;-66
2022/03/22 07:39:25;;;;;;;20.67;10.13;;;;;;;;;;5076006;28;20225;-66
2022/03/22 07:41:56;;;;;;;23.37;10.33;;;;;;;;;;5078784;28;20228;-69
2022/03/22 07:44:27;;;;;;;24.43;10.17;;;;;;;;;;5075664;28;20496;-69
2022/03/22 07:46:59;;;;;;;17.03;10.53;;;;;;;;;;5078862;28;20297;-69
2022/03/22 07:55:10;;;;;;;14.23;9.87;;;;;;;;;;5079082;28;20212;-66
2022/03/22 07:57:41;;;;;;;12.80;8.50;;;;;;;;;;5070062;28;20681;-66
2022/03/22 08:00:10;;;;;;;11.80;8.60;;;;;;;;;;5072442;28;20220;-66
2022/03/22 08:02:39;;;;;;;13.93;8.23;;;;;;;;;;5076164;28;20198;-66
2022/03/22 08:05:12;;;;;;;12.60;8.57;;;;;;;;;;5071658;28;20209;-68
2022/03/22 08:07:41;;;;;;;13.73;8.50;;;;;;;;;;5078952;28;20556;-68
2022/03/22 08:10:09;;;;;;;10.23;7.87;;;;;;;;;;5077767;28;20736;-65
2022/03/22 08:12:38;;;;;;;12.33;8.27;;;;;;;;;;5075882;28;20206;-66
2022/03/22 08:15:14;;;;;;;16.10;8.13;;;;;;;;;;5079024;28;20853;-67
2022/03/22 08:17:44;;;;;;;14.83;8.40;;;;;;;;;;5075566;28;20210;-68
2022/03/22 08:20:27;;;;;;;9.77;7.83;;;;;;;;;;5064753;28;20217;-66
2022/03/22 08:23:03;;;;;;;11.47;8.20;;;;;;;;;;5077251;28;20591;-64
2022/03/22 08:25:36;;;;;;;8.40;7.40;;;;;;;;;;5076677;28;20196;-67
2022/03/22 08:28:10;;;;;;;10.20;7.33;;;;;;;;;;5061129;28;20211;-66
2022/03/22 08:30:46;;;;;;;10.53;7.60;;;;;;;;;;5053230;28;20282;-68
2022/03/22 08:33:19;;;;;;;9.07;7.27;;;;;;;;;;5074700;28;20193;-68
2022/03/22 08:35:50;;;;;;;10.77;7.70;;;;;;;;;;5075703;28;20220;-66
2022/03/22 08:38:34;;;;;;;11.97;7.87;;;;;;;;;;5060791;28;20196;-64
2022/03/22 08:41:06;;;;;;;9.10;8.20;;;;;;;;;;5072621;28;20210;-64
2022/03/22 08:43:42;;;;;;;8.40;7.50;;;;;;;;;;5078936;28;20803;-64
2022/03/22 08:46:14;;;;;;;9.43;7.53;;;;;;;;;;5077230;28;20208;-67
2022/03/22 08:48:51;;;;;;;8.73;7.80;;;;;;;;;;5073949;28;20677;-68
2022/03/22 08:51:29;;;;;;;13.00;7.40;;;;;;;;;;5077740;28;20203;-66
2022/03/22 08:54:06;;;;;;;8.77;7.20;;;;;;;;;;5075974;28;20272;-69
2022/03/22 08:56:37;;;;;;;8.80;6.70;;;;;;;;;;5077657;28;20216;-69
2022/03/22 08:59:09;;;;;;;8.30;7.50;;;;;;;;;;5078615;28;20217;-68
2022/03/22 09:01:42;;;;;;;9.40;7.77;;;;;;;;;;5062526;28;20201;-70
2022/03/22 09:06:57;;;;;;;10.87;7.97;;;;;;;;;;5077371;28;20190;-68
2022/03/22 09:09:29;;;;;;;8.93;7.73;;;;;;;;;;5060771;28;20201;-66
2022/03/22 09:11:58;;;;;;;7.93;6.93;;;;;;;;;;5073674;28;20198;-68
2022/03/22 09:14:29;;;;;;;9.20;7.83;;;;;;;;;;5078319;28;20550;-67
2022/03/22 09:17:02;;;;;;;8.53;7.63;;;;;;;;;;5075618;28;20224;-64
2022/03/22 09:19:36;;;;;;;7.97;6.73;;;;;;;;;;5077073;28;20246;-65
2022/03/22 09:22:26;;;;;;;8.53;6.90;;;;;;;;;;5075789;28;20228;-65
2022/03/22 09:24:53;;;;;;;7.50;6.70;;;;;;;;;;5039607;28;20642;-65
2022/03/22 09:27:44;;;;;;;8.77;7.27;;;;;;;;;;5063086;28;20185;-70
2022/03/22 09:30:26;;;;;;;8.50;6.90;;;;;;;;;;5044982;28;20268;-68
2022/03/22 09:33:02;;;;;;;17.50;6.33;;;;;;;;;;5060028;28;20204;-67
2022/03/22 09:35:31;;;;;;;7.63;6.73;;;;;;;;;;5075630;28;20220;-69
2022/03/22 09:38:00;;;;;;;9.27;6.97;;;;;;;;;;5077738;28;20767;-69
2022/03/22 09:40:30;;;;;;;7.00;6.27;;;;;;;;;;5073651;28;20224;-65
2022/03/22 09:42:58;;;;;;;6.77;6.17;;;;;;;;;;5056292;28;20198;-68
2022/03/22 09:45:30;;;;;;;7.43;6.37;;;;;;;;;;5075406;28;20263;-67
2022/03/22 09:48:03;;;;;;;9.27;6.90;;;;;;;;;;5076654;28;20252;-65
2022/03/22 09:53:22;;;;;;;8.23;6.90;;;;;;;;;;5064548;28;20673;-66
2022/03/22 09:55:54;;;;;;;7.20;6.50;;;;;;;;;;5073432;28;20198;-65
2022/03/22 09:58:22;;;;;;;6.60;6.00;;;;;;;;;;5076637;28;20656;-65
2022/03/22 10:00:57;;;;;;;8.03;6.40;;;;;;;;;;5056282;28;20225;-65
2022/03/22 10:03:37;;;;;;;7.00;6.03;;;;;;;;;;5077130;28;20265;-63
2022/03/22 10:06:08;;;;;;;7.80;6.40;;;;;;;;;;5074017;28;20293;-66
2022/03/22 10:08:37;;;;;;;6.90;6.20;;;;;;;;;;5071338;28;20197;-66
2022/03/22 10:11:13;;;;;;;7.40;6.40;;;;;;;;;;5076393;28;20210;-65
2022/03/22 10:13:55;;;;;;;9.00;6.67;;;;;;;;;;5076859;28;20206;-66
2022/03/22 10:16:26;;;;;;;9.43;7.57;;;;;;;;;;5071367;28;20197;-67
2022/03/22 10:18:55;;;;;;;7.07;6.30;;;;;;;;;;5065533;28;20220;-67
2022/03/22 10:21:30;;;;;;;7.80;7.00;;;;;;;;;;5072111;28;20190;-67
2022/03/22 10:24:07;;;;;;;7.70;6.73;;;;;;;;;;5077146;28;20220;-66
2022/03/22 10:26:38;;;;;;;6.80;6.17;;;;;;;;;;5073398;28;20197;-67
2022/03/22 10:29:08;;;;;;;10.47;7.00;;;;;;;;;;5070134;28;20731;-68
2022/03/22 10:31:40;;;;;;;7.53;6.73;;;;;;;;;;5079809;28;20704;-68
2022/03/22 10:34:10;;;;;;;8.27;6.73;;;;;;;;;;5060190;28;20197;-70
2022/03/22 10:36:38;;;;;;;7.13;6.43;;;;;;;;;;5079065;28;20214;-67
2022/03/22 10:39:30;;;;;;;6.50;5.90;;;;;;;;;;5063651;28;20196;-68
2022/03/22 10:42:06;;;;;;;9.73;6.73;;;;;;;;;;5075188;28;20205;-69
2022/03/22 10:44:41;;;;;;;6.53;5.80;;;;;;;;;;5049342;28;20835;-68
2022/03/22 10:47:12;;;;;;;9.15;6.28;;;;;;;;;;5076893;28;20440;-67
2022/03/22 10:49:47;;;;;;;9.23;6.97;;;;;;;;;;5074225;28;20287;-68
2022/03/22 10:52:20;;;;;;;7.47;6.70;;;;;;;;;;5081490;28;20201;-68
2022/03/22 10:54:48;;;;;;;10.30;7.00;;;;;;;;;;5056180;28;20216;-68
2022/03/22 10:57:28;;;;;;;8.77;7.87;;;;;;;;;;5062516;28;20205;-69
2022/03/22 11:00:03;;;;;;;8.20;7.40;;;;;;;;;;5076876;28;20197;-69
2022/03/22 11:02:34;;;;;;;9.57;7.23;;;;;;;;;;5059412;28;20224;-67
2022/03/22 11:05:08;;;;;;;7.73;7.00;;;;;;;;;;5070430;28;20547;-68
2022/03/22 11:07:42;;;;;;;9.17;7.47;;;;;;;;;;5067148;28;20200;-70
2022/03/22 11:10:12;;;;;;;8.37;7.53;;;;;;;;;;5056507;28;20204;-68
2022/03/22 11:12:43;;;;;;;8.43;7.10;;;;;;;;;;5072677;28;20202;-67
2022/03/22 11:15:13;;;;;;;8.23;7.33;;;;;;;;;;5062588;28;20213;-68
2022/03/22 11:17:44;;;;;;;7.90;7.10;;;;;;;;;;5076835;28;20209;-70
2022/03/22 11:20:13;;;;;;;8.30;7.43;;;;;;;;;;5062145;28;20216;-68
2022/03/22 11:22:54;;;;;;;7.97;7.17;;;;;;;;;;5075006;28;20216;-67
2022/03/22 11:25:34;;;;;;;8.80;7.80;;;;;;;;;;5075798;28;20224;-68
2022/03/22 11:28:09;;;;;;;8.13;7.33;;;;;;;;;;5075407;28;20192;-68
2022/03/22 11:30:41;;;;;;;7.60;6.80;;;;;;;;;;5052356;28;20213;-68
2022/03/22 11:36:13;;;;;;;9.73;8.13;;;;;;;;;;5074022;28;20197;-68
2022/03/22 11:39:00;;;;;;;9.20;8.03;;;;;;;;;;5059455;28;20712;-68
2022/03/22 11:44:34;;;;;;;8.63;7.60;;;;;;;;;;5076291;28;20237;-69
2022/03/22 11:47:07;;;;;;;8.67;7.73;;;;;;;;;;5076471;28;20252;-69
2022/03/22 11:50:06;;;;;;;10.50;7.80;;;;;;;;;;5072123;28;20674;-69
2022/03/22 11:52:33;;;;;;;8.23;7.10;;;;;;;;;;5067690;28;20190;-68
2022/03/22 11:55:15;;;;;;;8.63;7.50;;;;;;;;;;5054962;28;20638;-69
2022/03/22 11:57:58;;;;;;;8.47;7.40;;;;;;;;;;5072657;28;20197;-69
2022/03/22 12:00:46;;;;;;;8.07;7.27;;;;;;;;;;5055431;28;20252;-69
2022/03/22 12:03:19;;;;;;;8.20;7.37;;;;;;;;;;5073013;28;20293;-69
2022/03/22 12:05:52;;;;;;;7.30;6.60;;;;;;;;;;5053184;28;20204;-70
2022/03/22 12:08:21;;;;;;;7.57;6.87;;;;;;;;;;5042025;28;20202;-69
2022/03/22 12:10:55;;;;;;;7.80;6.53;;;;;;;;;;5065973;28;20206;-70
2022/03/22 12:13:30;;;;;;;7.43;6.70;;;;;;;;;;5060036;28;20220;-68
2022/03/22 12:16:01;;;;;;;8.57;6.73;;;;;;;;;;5054502;28;20206;-68
2022/03/22 12:18:32;;;;;;;10.33;7.30;;;;;;;;;;5047029;28;20205;-68
2022/03/22 12:21:01;;;;;;;7.97;6.90;;;;;;;;;;5069487;28;20237;-66
2022/03/22 12:23:34;;;;;;;7.87;6.50;;;;;;;;;;5075168;28;20197;-66
2022/03/22 12:26:07;;;;;;;7.60;6.53;;;;;;;;;;5075229;28;20201;-65
2022/03/22 12:28:54;;;;;;;7.53;6.73;;;;;;;;;;5068109;28;20747;-63
2022/03/22 12:31:25;;;;;;;8.43;6.83;;;;;;;;;;5054963;28;20216;-67
2022/03/22 12:33:58;;;;;;;9.63;6.70;;;;;;;;;;5076891;28;20189;-66
2022/03/22 12:36:28;;;;;;;8.77;6.87;;;;;;;;;;5075651;28;20201;-67
2022/03/22 12:38:58;;;;;;;7.20;6.33;;;;;;;;;;5070161;28;20201;-67
2022/03/22 12:41:25;;;;;;;6.67;6.00;;;;;;;;;;5057969;28;20216;-65
2022/03/22 12:43:56;;;;;;;8.57;6.47;;;;;;;;;;5073190;28;20681;-65
2022/03/22 12:46:26;;;;;;;10.37;6.27;;;;;;;;;;5068132;28;20232;-64
2022/03/22 12:48:57;;;;;;;8.77;6.40;;;;;;;;;;5075052;28;20229;-67
2022/03/22 12:51:31;;;;;;;5.73;5.13;;;;;;;;;;5058141;28;20212;-66
2022/03/22 12:54:03;;;;;;;6.63;5.40;;;;;;;;;;5077124;28;20197;-65
2022/03/22 12:56:34;;;;;;;6.90;5.33;;;;;;;;;;5070934;28;20218;-68
2022/03/22 12:59:27;;;;;;;7.43;6.27;;;;;;;;;;5061912;28;20197;-66
2022/03/22 13:01:59;;;;;;;6.53;5.93;;;;;;;;;;5040767;28;20225;-68
2022/03/22 13:04:32;;;;;;;8.40;5.70;;;;;;;;;;5061973;28;20205;-66
2022/03/22 13:07:10;;;;;;;6.20;5.60;;;;;;;;;;5069006;28;20202;-67
2022/03/22 13:12:31;;;;;;;7.00;5.20;;;;;;;;;;5042790;28;20210;-65
2022/03/22 13:15:06;;;;;;;6.60;5.90;;;;;;;;;;5073839;28;20207;-66
2022/03/22 13:17:49;;;;;;;6.13;5.53;;;;;;;;;;5068774;28;20213;-64
2022/03/22 13:20:25;;;;;;;7.03;5.03;;;;;;;;;;5069296;28;20231;-67
2022/03/22 13:23:11;;;;;;;5.70;5.20;;;;;;;;;;5055018;28;20192;-67
2022/03/22 13:25:43;;;;;;;7.20;5.03;;;;;;;;;;5075359;28;20193;-67
2022/03/22 13:28:16;;;;;;;5.50;4.90;;;;;;;;;;5069749;28;21366;-67
2022/03/22 13:30:50;;;;;;;5.57;4.97;;;;;;;;;;5047546;28;20630;-68
2022/03/22 13:33:35;;;;;;;8.77;5.40;;;;;;;;;;5058128;28;20752;-67
2022/03/22 13:36:08;;;;;;;6.20;5.43;;;;;;;;;;5061182;28;20197;-67
2022/03/22 13:38:48;;;;;;;5.70;5.00;;;;;;;;;;5063467;28;20288;-68
2022/03/22 13:41:30;;;;;;;6.13;5.53;;;;;;;;;;5070891;28;20218;-67
2022/03/22 13:44:00;;;;;;;5.80;4.87;;;;;;;;;;5058853;28;20211;-67
2022/03/22 13:46:30;;;;;;;6.53;4.80;;;;;;;;;;5076082;28;20212;-67
2022/03/22 13:49:00;;;;;;;5.57;5.00;;;;;;;;;;5066274;28;20426;-65
2022/03/22 13:51:34;;;;;;;5.57;4.70;;;;;;;;;;5067689;28;20197;-67
2022/03/22 13:54:13;;;;;;;5.23;4.73;;;;;;;;;;5071297;28;20190;-65
2022/03/22 13:56:45;;;;;;;5.63;4.60;;;;;;;;;;5054680;28;20216;-67
2022/03/22 13:59:16;;;;;;;6.00;4.23;;;;;;;;;;5075882;28;20207;-68
2022/03/22 14:01:46;;;;;;;4.80;4.30;;;;;;;;;;5078914;28;20207;-66
2022/03/22 14:04:17;;;;;;;5.00;4.50;;;;;;;;;;5073443;28;20227;-66
2022/03/22 14:06:49;;;;;;;4.10;3.63;;;;;;;;;;5071564;28;20247;-66
2022/03/22 14:09:22;;;;;;;4.90;4.40;;;;;;;;;;5076833;28;20199;-66
2022/03/22 14:11:51;;;;;;;4.63;4.17;;;;;;;;;;5079161;28;20720;-65
2022/03/22 14:14:23;;;;;;;5.30;4.60;;;;;;;;;;5077460;28;20213;-66
2022/03/22 14:16:52;;;;;;;4.60;3.93;;;;;;;;;;5051301;28;20216;-63
2022/03/22 14:19:39;;;;;;;5.17;4.40;;;;;;;;;;5069234;28;20700;-65
2022/03/22 14:22:13;;;;;;;6.67;4.63;;;;;;;;;;5069197;28;20239;-71
2022/03/22 14:24:43;;;;;;;9.43;4.47;;;;;;;;;;5076099;28;20578;-70
2022/03/22 14:27:12;;;;;;;4.00;3.67;;;;;;;;;;5072625;28;20210;-70
2022/03/22 14:29:44;;;;;;;5.40;4.37;;;;;;;;;;5076401;28;20203;-70
2022/03/22 14:32:13;;;;;;;6.37;4.43;;;;;;;;;;5068970;28;20198;-67
2022/03/22 14:37:41;;;;;;;4.67;4.03;;;;;;;;;;5077641;28;20198;-67
2022/03/22 14:40:10;;;;;;;8.63;4.00;;;;;;;;;;5073770;28;20210;-66
2022/03/22 14:42:39;;;;;;;4.50;3.70;;;;;;;;;;5069617;28;20198;-65
2022/03/22 14:45:13;;;;;;;4.93;4.00;;;;;;;;;;5080902;28;20250;-65
2022/03/22 14:47:43;;;;;;;6.07;4.20;;;;;;;;;;5045674;28;20236;-66
2022/03/22 14:50:14;;;;;;;3.83;3.40;;;;;;;;;;5074593;28;20206;-66
2022/03/22 14:55:36;;;;;;;4.40;4.00;;;;;;;;;;5056921;28;20191;-69
2022/03/22 15:01:05;;;;;;;4.97;3.90;;;;;;;;;;5066518;28;20205;-68
2022/03/22 15:03:34;;;;;;;3.93;3.30;;;;;;;;;;5079097;28;20214;-69
2022/03/22 15:06:14;;;;;;;4.67;3.90;;;;;;;;;;5076024;28;20677;-66
2022/03/22 15:08:45;;;;;;;5.30;3.83;;;;;;;;;;5073573;28;20242;-65
2022/03/22 15:11:13;;;;;;;3.93;3.53;;;;;;;;;;5073429;28;20200;-65
2022/03/22 15:13:49;;;;;;;4.93;3.90;;;;;;;;;;5072745;28;20197;-66
2022/03/22 15:16:26;;;;;;;5.10;3.67;;;;;;;;;;5053038;28;20193;-66
2022/03/22 15:18:57;;;;;;;8.00;3.43;;;;;;;;;;5051192;28;20205;-66
2022/03/22 15:21:30;;;;;;;5.00;3.97;;;;;;;;;;5069763;28;20230;-64
2022/03/22 15:24:01;;;;;;;3.80;3.23;;;;;;;;;;5067459;28;20216;-65
2022/03/22 15:26:33;;;;;;;3.80;3.40;;;;;;;;;;5064529;28;20209;-65
2022/03/22 15:29:08;;;;;;;3.83;3.53;;;;;;;;;;5070450;28;20213;-66
2022/03/22 15:31:40;;;;;;;5.07;3.80;;;;;;;;;;5072467;28;20185;-68
2022/03/22 15:34:12;;;;;;;4.97;3.60;;;;;;;;;;5044979;28;20214;-67
2022/03/22 15:36:45;;;;;;;4.03;3.67;;;;;;;;;;5059203;28;20204;-65
2022/03/22 15:39:17;;;;;;;5.03;3.87;;;;;;;;;;5068559;28;20197;-68
2022/03/22 15:41:49;;;;;;;6.73;3.50;;;;;;;;;;5069200;28;20283;-67
2022/03/22 15:44:23;;;;;;;7.47;3.60;;;;;;;;;;5066234;28;20198;-68
2022/03/22 15:46:52;;;;;;;7.07;4.27;;;;;;;;;;5057112;28;20200;-68
2022/03/22 15:49:21;;;;;;;6.93;3.90;;;;;;;;;;5056709;28;20186;-68
2022/03/22 15:51:52;;;;;;;5.63;3.80;;;;;;;;;;5050745;28;20218;-68
2022/03/22 15:54:24;;;;;;;4.10;3.70;;;;;;;;;;5045257;28;20201;-68
2022/03/22 15:56:54;;;;;;;4.67;3.67;;;;;;;;;;5019155;28;20962;-67
2022/03/22 15:59:23;;;;;;;4.30;3.90;;;;;;;;;;5047402;28;20233;-66
2022/03/22 16:01:55;;;;;;;4.00;3.50;;;;;;;;;;5052699;28;20231;-68
2022/03/22 16:04:24;;;;;;;4.40;3.60;;;;;;;;;;5044621;28;20210;-68
2022/03/22 16:06:51;;;;;;;5.13;3.73;;;;;;;;;;5054187;28;20221;-65
2022/03/22 16:09:27;;;;;;;4.43;3.77;;;;;;;;;;5051030;28;20245;-66
2022/03/22 16:11:57;;;;;;;4.30;3.70;;;;;;;;;;5057505;28;20244;-65